Greenway, AR

10:42 AM CDT on August 30, 2014 (GMT -0500)
Blytheville Municipal | Change Station
CLOSE
Current Station
Airport
Location: Blytheville Muni Airport,
Elevation: 256 ft
Nearby Weather Stations

Elev 256 ft 35.94 °N, 89.83 °W | Updated 49 minutes ago

Mostly Cloudy
Mostly Cloudy
81 °F
Feels Like 87 °F
N
8
Wind Variable Wind from SSW

Today
High -- | Low -- °F
--% Chance of Precip.
Yesterday
High -- | Low -- °F
Precip. -- in
6:30 AM 7:31 PM
Waxing Crescent, 22% visible
Pressure 30.03 in
Visibility 10.0 miles
Clouds Mostly Cloudy 11000 ft
Heat Index 87 °F
Dew Point 75 °F
Humidity 82%
Rainfall 0.00 in
Snow Depth Not available.
UV 3 out of 12
Pollen 5.10 out of 12
Air Quality Not available.
Flu Activity Not available.
METAR KHKA 301453Z AUTO 21007KT 10SM BKN110 27/24 A3004 RMK AO2 SLP169 T02720239 53010

More Conditions Fewer Conditions

Pressure 30.03 in
Visibility 10.0 miles
Clouds Mostly Cloudy 11000 ft
Heat Index 87 °F
Dew Point 75 °F
Humidity 82%
Rainfall 0.00 in
Snow Depth Not available.
UV 3 out of 12
Pollen 5.10 out of 12
Air Quality Not available.
Flu Activity Not available.
METAR KHKA 301453Z AUTO 21007KT 10SM BKN110 27/24 A3004 RMK AO2 SLP169 T02720239 53010

More Conditions Fewer Conditions

10-Day Weather Forecast

Almanac

Astronomy

Aug. 30, 2014 Rise Set
Actual Time 6:30 AM CDT 7:31 PM CDT
Civil Twilight 6:04 AM CDT 7:57 PM CDT
Nautical Twilight 5:32 AM CDT 8:29 PM CDT
Astronomical Twilight 5:00 AM CDT 9:01 PM CDT
Moon 11:09 AM CDT 10:15 PM CDT
Length of Visible Light 13h 53m
Length of Day
13h 00m
Tomorrow will be 2m 12s shorter.
Waxing Crescent, 22% of the Moon is Illuminated
Today
Waxing Crescent
Sep 2
First Quarter
Sep 8
Full
Sep 15
Last Quarter
Sep 24
New

Today's Extremes

State Highs State Lows

Community

WunderPhotos

Upload Photos

1,748,550 photos uploaded!

WunderBlogs® & News

Nearby

Snow Depth

Station Depth Elevation
No new snow has been reported.

Earthquake Activity

City Distance Mag. Time & Date
No recent earthquake activity has been reported nearby.
Minimum magnitude displayed is 2.5.

Coastal Water Temperatures

Place Temperature
No Stations Reporting

Nearby Weather Stations